Time;durP1;ratioP1;P1;durP2;ratioP2;P2;SDS_P1;SDS_P2;PMS_P1;PMS_P2;Temp;Humidity;BMP_temperature;BMP_pressure;BME280_temperature;BME280_humidity;BME280_pressure;Samples;Min_cycle;Max_cycle;Signal;HPM_P1;HPM_P2
2023/03/10 00:00:29;;;;;;;0.30;0.20;;;;;;;-1.67;65.62;99957.97;4987536;28;20053;-76
2023/03/10 00:02:55;;;;;;;3.47;0.30;;;;;;;-1.67;65.80;99957.09;4983875;28;20495;-75
2023/03/10 00:05:22;;;;;;;1.52;0.20;;;;;;;-1.67;65.74;99949.41;4982080;28;20053;-75
2023/03/10 00:07:49;;;;;;;0.30;0.10;;;;;;;-1.70;65.93;99941.69;4982107;28;20062;-76
2023/03/10 00:10:17;;;;;;;0.73;0.15;;;;;;;-1.70;65.61;99939.97;4983966;28;20046;-76
2023/03/10 00:12:44;;;;;;;0.80;0.10;;;;;;;-1.69;65.59;99943.41;4984889;28;20053;-75
2023/03/10 00:15:13;;;;;;;0.30;0.20;;;;;;;-1.70;65.78;99955.34;4987596;28;20065;-76
2023/03/10 00:17:40;;;;;;;0.63;0.20;;;;;;;-1.70;65.33;99939.97;4979014;28;20050;-76
2023/03/10 00:20:10;;;;;;;0.52;0.20;;;;;;;-1.74;65.95;99937.31;4988356;28;20149;-76
2023/03/10 00:22:38;;;;;;;0.20;0.10;;;;;;;-1.75;65.55;99940.72;4981567;28;20046;-76
2023/03/10 00:25:06;;;;;;;0.85;0.20;;;;;;;-1.73;65.88;99945.06;4985381;28;20054;-75
2023/03/10 00:27:33;;;;;;;0.40;0.10;;;;;;;-1.74;65.78;99943.31;4979669;28;20061;-75
2023/03/10 00:29:59;;;;;;;0.20;0.10;;;;;;;-1.80;65.54;99932.97;4989745;28;20050;-76
2023/03/10 00:32:28;;;;;;;1.67;0.17;;;;;;;-1.75;65.74;99944.16;4987090;28;20418;-76
2023/03/10 00:34:55;;;;;;;0.28;0.15;;;;;;;-1.78;65.95;99946.66;4983968;28;20050;-76
2023/03/10 00:37:22;;;;;;;0.40;0.20;;;;;;;-1.77;66.00;99938.13;4984951;28;20684;-76
2023/03/10 00:39:51;;;;;;;0.47;0.20;;;;;;;-1.77;65.73;99943.25;4991130;28;20054;-75
2023/03/10 00:42:18;;;;;;;0.68;0.15;;;;;;;-1.80;65.56;99935.53;4982615;28;20043;-76
2023/03/10 00:44:45;;;;;;;2.03;0.20;;;;;;;-1.80;65.94;99938.06;4989870;28;20053;-75
2023/03/10 00:47:12;;;;;;;0.90;0.10;;;;;;;-1.88;65.89;99929.41;4980794;28;20058;-76
2023/03/10 00:49:40;;;;;;;0.88;0.17;;;;;;;-1.82;65.99;99935.50;4985811;28;20050;-75
2023/03/10 00:52:07;;;;;;;0.28;0.10;;;;;;;-1.82;65.93;99939.78;4985366;28;20126;-76
2023/03/10 00:54:34;;;;;;;0.10;0.10;;;;;;;-1.83;65.92;99940.59;4983471;28;20057;-76
2023/03/10 00:57:01;;;;;;;1.85;0.20;;;;;;;-1.85;65.62;99935.47;4986126;28;20136;-76
2023/03/10 00:59:27;;;;;;;0.20;0.10;;;;;;;-1.85;65.95;99940.56;4990149;28;20402;-76
2023/03/10 01:01:54;;;;;;;0.45;0.10;;;;;;;-1.85;65.67;99939.69;4986019;28;20484;-76
2023/03/10 01:04:21;;;;;;;0.40;0.10;;;;;;;-1.96;65.69;99921.59;4982348;28;20053;-77
2023/03/10 01:06:49;;;;;;;0.40;0.20;;;;;;;-1.89;66.01;99938.78;4984314;28;20042;-76
2023/03/10 01:09:17;;;;;;;0.60;0.10;;;;;;;-1.88;66.18;99930.28;4969866;28;20050;-76
2023/03/10 01:11:43;;;;;;;0.20;0.10;;;;;;;-1.90;66.13;99934.50;4980360;28;20567;-76
2023/03/10 01:14:17;;;;;;;0.65;0.30;;;;;;;-1.90;65.85;99931.94;4982388;28;20046;-76
2023/03/10 01:16:44;;;;;;;0.25;0.15;;;;;;;-1.90;66.01;99936.22;4985457;28;20065;-76
2023/03/10 01:19:11;;;;;;;0.80;0.20;;;;;;;-1.91;65.55;99930.19;4982604;28;20054;-76
2023/03/10 01:21:39;;;;;;;0.17;0.10;;;;;;;-1.91;66.03;99934.47;4973020;28;20152;-76
2023/03/10 01:24:08;;;;;;;0.50;0.20;;;;;;;-1.92;66.24;99937.88;4988370;28;20073;-75
2023/03/10 01:26:35;;;;;;;0.93;0.20;;;;;;;-1.94;65.31;99929.28;4974321;28;20046;-75
2023/03/10 01:29:02;;;;;;;1.48;0.10;;;;;;;-1.93;66.07;99939.56;4995043;28;20039;-75
2023/03/10 01:31:29;;;;;;;0.20;0.10;;;;;;;-1.95;66.16;99936.13;4984188;28;20415;-76
2023/03/10 01:33:55;;;;;;;1.15;0.10;;;;;;;-1.95;65.60;99933.56;4985492;28;20056;-76
2023/03/10 01:36:25;;;;;;;0.20;0.10;;;;;;;-1.96;66.11;99926.72;4981549;28;20046;-76
2023/03/10 01:38:53;;;;;;;0.30;0.20;;;;;;;-1.96;65.89;99936.09;4983107;28;20552;-75
2023/03/10 01:41:23;;;;;;;0.63;0.10;;;;;;;-1.96;66.24;99933.53;4987060;28;20046;-76
2023/03/10 01:43:52;;;;;;;0.50;0.20;;;;;;;-1.98;65.81;99933.50;4979180;28;20687;-76
2023/03/10 01:46:45;;;;;;;0.60;0.17;;;;;;;-2.01;65.94;99923.22;4980626;28;20042;-75
2023/03/10 01:49:29;;;;;;;1.92;0.10;;;;;;;-1.97;65.99;99934.34;4976561;28;20047;-76
2023/03/10 01:52:00;;;;;;;0.47;0.10;;;;;;;-2.00;65.81;99930.03;4980897;28;20050;-75
2023/03/10 01:54:33;;;;;;;0.70;0.20;;;;;;;-1.99;65.98;99930.91;4981601;28;20042;-75
2023/03/10 01:57:04;;;;;;;0.82;0.20;;;;;;;-2.00;66.14;99935.16;4973627;28;20066;-76
2023/03/10 01:59:33;;;;;;;0.90;0.10;;;;;;;-2.01;65.97;99932.59;4978819;28;20129;-75
2023/03/10 02:02:01;;;;;;;0.20;0.15;;;;;;;-2.03;66.29;99933.41;4980605;28;20054;-75
2023/03/10 02:04:35;;;;;;;0.40;0.30;;;;;;;-2.04;66.16;99938.50;4980748;28;20053;-75
2023/03/10 02:07:04;;;;;;;1.95;0.20;;;;;;;-2.03;66.49;99941.06;4983316;28;20077;-75
2023/03/10 02:09:35;;;;;;;0.30;0.20;;;;;;;-2.05;66.14;99935.09;4984271;28;20450;-76
2023/03/10 02:12:05;;;;;;;0.40;0.20;;;;;;;-2.01;66.32;99945.38;4975174;28;20059;-76
2023/03/10 02:14:34;;;;;;;0.20;0.10;;;;;;;-2.04;66.00;99943.63;4984901;28;20055;-75
2023/03/10 02:17:01;;;;;;;0.47;0.20;;;;;;;-2.05;66.50;99944.44;4984846;28;20588;-76
2023/03/10 02:19:40;;;;;;;0.60;0.20;;;;;;;-2.12;66.04;99924.69;4978533;28;20047;-76
2023/03/10 02:22:10;;;;;;;0.20;0.17;;;;;;;-2.04;66.09;99944.47;4976054;28;20056;-76
2023/03/10 02:24:45;;;;;;;0.65;0.20;;;;;;;-2.05;66.38;99937.66;4982886;28;20062;-77
2023/03/10 02:27:17;;;;;;;1.15;0.20;;;;;;;-2.05;66.12;99942.75;4979471;28;20066;-76
2023/03/10 02:29:48;;;;;;;0.40;0.30;;;;;;;-2.05;66.41;99942.75;4980669;28;20051;-76
2023/03/10 02:32:15;;;;;;;1.48;0.20;;;;;;;-2.05;66.16;99949.56;4976950;28;20053;-76
2023/03/10 02:34:42;;;;;;;0.47;0.20;;;;;;;-2.05;66.12;99944.44;4980872;28;20050;-76
2023/03/10 02:37:19;;;;;;;0.70;0.20;;;;;;;-2.08;66.04;99937.59;4984481;28;20417;-76
2023/03/10 02:39:46;;;;;;;0.43;0.20;;;;;;;-2.07;66.45;99941.88;4978597;28;20051;-75
2023/03/10 02:42:13;;;;;;;0.30;0.20;;;;;;;-2.05;66.62;99937.66;4973183;28;20633;-76
2023/03/10 02:44:42;;;;;;;0.75;0.20;;;;;;;-2.05;66.45;99947.88;4983464;28;20052;-80
2023/03/10 02:47:09;;;;;;;0.28;0.10;;;;;;;-2.06;66.24;99943.59;4976661;28;20050;-76
2023/03/10 02:49:37;;;;;;;0.45;0.25;;;;;;;-2.07;66.67;99933.34;4982933;28;20049;-76
2023/03/10 02:52:10;;;;;;;0.40;0.20;;;;;;;-2.09;66.38;99925.63;4981161;28;20066;-76
2023/03/10 02:54:36;;;;;;;0.65;0.10;;;;;;;-2.06;66.65;99938.47;4983349;28;20446;-76
2023/03/10 02:57:03;;;;;;;1.58;0.20;;;;;;;-2.05;66.53;99941.88;4981790;28;20050;-76
2023/03/10 02:59:33;;;;;;;0.63;0.20;;;;;;;-2.05;66.85;99937.66;4989096;28;20051;-76
2023/03/10 03:02:01;;;;;;;1.13;0.30;;;;;;;-2.05;66.88;99939.31;4989398;28;20499;-76
2023/03/10 03:04:28;;;;;;;3.17;0.20;;;;;;;-2.05;66.45;99935.09;4988959;28;20073;-76
2023/03/10 03:06:55;;;;;;;0.30;0.20;;;;;;;-2.05;66.42;99929.97;4985582;28;20069;-76
2023/03/10 03:09:22;;;;;;;0.55;0.20;;;;;;;-2.04;66.60;99929.13;4987191;28;20170;-77
2023/03/10 03:11:49;;;;;;;1.30;0.30;;;;;;;-2.06;66.62;99930.78;4990035;28;20062;-77
2023/03/10 03:14:15;;;;;;;0.60;0.30;;;;;;;-2.05;66.91;99927.41;4994686;28;20042;-76
2023/03/10 03:16:42;;;;;;;0.25;0.13;;;;;;;-2.06;66.85;99928.22;4990096;28;20051;-75
2023/03/10 03:19:11;;;;;;;0.77;0.20;;;;;;;-2.05;66.71;99935.09;4992019;28;20052;-76
2023/03/10 03:21:37;;;;;;;0.30;0.20;;;;;;;-2.05;66.88;99935.09;4993927;28;20050;-76
2023/03/10 03:24:05;;;;;;;0.47;0.20;;;;;;;-2.03;66.82;99930.84;4991778;28;20053;-76
2023/03/10 03:26:31;;;;;;;0.40;0.20;;;;;;;-2.03;67.05;99941.06;4991670;28;20050;-76
2023/03/10 03:28:59;;;;;;;2.05;0.20;;;;;;;-2.02;66.76;99931.72;4992811;28;20435;-75
2023/03/10 03:31:26;;;;;;;0.40;0.17;;;;;;;-2.12;67.12;99910.19;4984254;28;20057;-76
2023/03/10 03:33:53;;;;;;;0.30;0.20;;;;;;;-2.01;67.21;99932.59;4995347;28;20065;-75
2023/03/10 03:36:21;;;;;;;0.30;0.20;;;;;;;-2.00;66.78;99935.16;4990066;28;20057;-77
2023/03/10 03:38:48;;;;;;;1.65;0.20;;;;;;;-1.98;67.05;99935.19;4989415;28;20503;-76
2023/03/10 03:41:15;;;;;;;4.68;0.20;;;;;;;-2.00;67.09;99942.84;4989419;28;20146;-77
2023/03/10 03:43:42;;;;;;;0.45;0.20;;;;;;;-2.00;67.17;99929.19;4984051;28;20121;-76
2023/03/10 03:46:09;;;;;;;0.25;0.20;;;;;;;-1.98;67.44;99933.50;4990229;28;20694;-76
2023/03/10 03:48:37;;;;;;;0.30;0.20;;;;;;;-1.98;67.14;99932.63;4986769;28;20042;-76
2023/03/10 03:51:04;;;;;;;0.80;0.30;;;;;;;-1.97;67.12;99930.09;4994822;28;20120;-80
2023/03/10 03:53:33;;;;;;;0.95;0.10;;;;;;;-1.98;67.35;99924.97;4990980;28;20052;-71
2023/03/10 03:56:00;;;;;;;0.17;0.10;;;;;;;-2.00;67.09;99921.50;4986907;28;20050;-70
2023/03/10 03:58:27;;;;;;;0.52;0.20;;;;;;;-1.97;67.18;99930.09;4988529;28;20126;-72
2023/03/10 04:00:54;;;;;;;1.05;0.25;;;;;;;-1.97;67.27;99919.84;4991022;28;20046;-70
2023/03/10 04:03:21;;;;;;;0.60;0.20;;;;;;;-1.95;67.07;99927.56;4987970;28;20046;-70
2023/03/10 04:05:48;;;;;;;1.00;0.20;;;;;;;-1.95;67.56;99925.88;4988413;28;20061;-70
2023/03/10 04:08:14;;;;;;;0.43;0.20;;;;;;;-1.97;67.45;99919.84;4987197;28;20056;-71
2023/03/10 04:10:43;;;;;;;0.70;0.40;;;;;;;-1.99;67.32;99916.44;4989477;28;20065;-71
2023/03/10 04:13:10;;;;;;;1.75;0.30;;;;;;;-1.95;67.43;99918.19;4990365;28;20043;-71
2023/03/10 04:15:36;;;;;;;0.30;0.20;;;;;;;-1.95;67.43;99912.22;4990845;28;20046;-70
2023/03/10 04:18:04;;;;;;;0.52;0.10;;;;;;;-1.97;67.32;99906.19;4990737;28;20050;-70
2023/03/10 04:20:30;;;;;;;0.52;0.20;;;;;;;-1.93;67.49;99913.13;4988843;28;20062;-71
2023/03/10 04:22:57;;;;;;;0.57;0.10;;;;;;;-1.94;67.33;99919.06;4989624;28;20049;-71
2023/03/10 04:25:24;;;;;;;0.63;0.20;;;;;;;-1.92;67.28;99917.41;4988290;28;20061;-71
2023/03/10 04:27:52;;;;;;;0.73;0.10;;;;;;;-1.92;67.39;99910.56;4983491;28;20479;-71
2023/03/10 04:30:19;;;;;;;1.20;0.20;;;;;;;-1.93;67.54;99905.44;4986842;28;20050;-70
2023/03/10 04:32:46;;;;;;;0.63;0.17;;;;;;;-1.91;67.52;99908.88;4985726;28;20046;-71
2023/03/10 04:35:14;;;;;;;0.22;0.10;;;;;;;-1.91;67.52;99909.72;4985804;28;20467;-71
2023/03/10 04:37:43;;;;;;;0.20;0.10;;;;;;;-1.90;67.67;99916.59;4987575;28;20061;-71
2023/03/10 04:40:13;;;;;;;0.15;0.10;;;;;;;-1.89;67.61;99917.44;4989272;28;20070;-71
2023/03/10 04:42:40;;;;;;;1.00;0.20;;;;;;;-1.90;67.59;99911.47;4988809;28;20057;-70
2023/03/10 04:45:10;;;;;;;0.70;0.10;;;;;;;-1.88;67.62;99919.16;4985470;28;20054;-70
2023/03/10 04:47:37;;;;;;;0.20;0.10;;;;;;;-1.88;67.33;99919.16;4986556;28;20043;-71
2023/03/10 04:50:06;;;;;;;1.08;0.17;;;;;;;-1.89;67.38;99922.56;4988879;28;20490;-71
2023/03/10 04:52:32;;;;;;;0.73;0.10;;;;;;;-1.88;67.69;99920.03;4985022;28;20065;-71
2023/03/10 04:54:59;;;;;;;0.63;0.22;;;;;;;-1.90;67.50;99915.72;4987862;28;20038;-71
2023/03/10 04:57:26;;;;;;;0.52;0.10;;;;;;;-1.88;67.59;99908.91;4984203;28;20051;-71
2023/03/10 04:59:53;;;;;;;0.10;0.10;;;;;;;-1.92;67.69;99907.16;4982948;28;20050;-71
2023/03/10 05:02:21;;;;;;;0.28;0.17;;;;;;;-1.87;67.43;99918.34;4987016;28;20491;-71
2023/03/10 05:04:48;;;;;;;0.30;0.10;;;;;;;-1.88;67.98;99911.47;4987687;28;20042;-70
2023/03/10 05:07:15;;;;;;;0.20;0.10;;;;;;;-1.86;67.81;99912.38;4989525;28;20060;-71
2023/03/10 05:09:42;;;;;;;0.05;0.00;;;;;;;-1.87;67.67;99906.41;4989440;28;20482;-70
2023/03/10 05:12:10;;;;;;;0.10;0.10;;;;;;;-1.86;67.80;99909.81;4986635;28;21072;-71
2023/03/10 05:14:37;;;;;;;1.00;0.00;;;;;;;-1.85;67.67;99909.84;4985406;28;20051;-71
2023/03/10 05:17:05;;;;;;;1.55;0.10;;;;;;;-1.84;67.74;99910.72;4981912;28;20046;-71
2023/03/10 05:19:35;;;;;;;0.75;0.10;;;;;;;-1.82;67.85;99909.06;4986613;28;20050;-71
2023/03/10 05:22:01;;;;;;;0.50;0.10;;;;;;;-1.82;67.56;99906.50;4986431;28;20495;-71
2023/03/10 05:24:28;;;;;;;0.10;0.10;;;;;;;-1.81;67.94;99911.63;4984719;28;20054;-71
2023/03/10 05:26:55;;;;;;;0.17;0.05;;;;;;;-1.91;67.68;99899.47;4986638;28;20042;-70
2023/03/10 05:29:22;;;;;;;1.15;0.10;;;;;;;-1.81;67.72;99910.78;4983099;28;20138;-71
2023/03/10 05:31:49;;;;;;;0.20;0.10;;;;;;;-1.82;67.99;99907.34;4985251;28;20521;-71
2023/03/10 05:34:16;;;;;;;0.32;0.10;;;;;;;-1.80;67.58;99907.34;4988480;28;20057;-71
2023/03/10 05:36:44;;;;;;;0.17;0.10;;;;;;;-1.79;67.97;99909.09;4985665;28;20454;-70
2023/03/10 05:39:11;;;;;;;1.10;0.00;;;;;;;-1.77;67.95;99904.00;4983619;28;20056;-71
2023/03/10 05:41:38;;;;;;;0.60;0.10;;;;;;;-1.77;67.70;99909.97;4985090;28;20046;-70
2023/03/10 05:44:05;;;;;;;0.10;0.00;;;;;;;-1.77;67.40;99912.53;4980159;28;20853;-70
2023/03/10 05:46:32;;;;;;;0.10;0.00;;;;;;;-1.76;67.87;99906.59;4975224;28;20042;-74
2023/03/10 05:48:59;;;;;;;0.15;0.10;;;;;;;-1.76;67.80;99898.91;4983533;28;20052;-73
2023/03/10 05:51:26;;;;;;;0.40;0.10;;;;;;;-1.76;67.69;99901.47;4985086;28;20046;-73
2023/03/10 05:53:54;;;;;;;0.10;0.10;;;;;;;-1.83;67.72;99882.56;4987046;28;20494;-73
2023/03/10 05:56:22;;;;;;;0.35;0.10;;;;;;;-1.80;67.66;99889.44;4986864;28;20047;-73
2023/03/10 05:58:49;;;;;;;0.85;0.20;;;;;;;-1.77;68.04;99886.94;4986991;28;20515;-71
2023/03/10 06:01:16;;;;;;;0.20;0.17;;;;;;;-1.79;67.55;99891.19;4987487;28;20057;-71
2023/03/10 06:03:44;;;;;;;0.00;0.00;;;;;;;-1.75;67.87;99895.50;4987144;28;20050;-72
2023/03/10 06:06:11;;;;;;;0.80;0.10;;;;;;;-1.74;68.23;99906.59;4985433;28;20054;-72
2023/03/10 06:08:38;;;;;;;0.10;0.10;;;;;;;-1.75;68.00;99890.38;4985960;28;20525;-72
2023/03/10 06:11:07;;;;;;;0.10;0.00;;;;;;;-1.73;67.96;99903.22;4982850;28;20191;-72
2023/03/10 06:13:33;;;;;;;0.15;0.10;;;;;;;-1.72;67.88;99905.78;4988159;28;20490;-72
2023/03/10 06:16:03;;;;;;;1.40;0.10;;;;;;;-1.74;68.13;99902.34;4983810;28;20043;-72
2023/03/10 06:18:30;;;;;;;1.20;0.20;;;;;;;-1.71;67.86;99896.41;4987664;28;20053;-72
2023/03/10 06:20:58;;;;;;;0.10;0.10;;;;;;;-1.70;67.88;99904.13;4985054;28;20051;-73
2023/03/10 06:23:27;;;;;;;0.20;0.10;;;;;;;-1.69;68.21;99899.88;4984400;28;20050;-72
2023/03/10 06:25:59;;;;;;;0.20;0.10;;;;;;;-1.68;68.30;99896.47;4986284;28;20053;-73
2023/03/10 06:28:31;;;;;;;0.45;0.10;;;;;;;-1.73;67.86;99890.44;4986841;28;20046;-74
2023/03/10 06:30:59;;;;;;;1.27;0.10;;;;;;;-1.68;68.29;99907.59;4985377;28;20046;-73
2023/03/10 06:33:27;;;;;;;0.15;0.10;;;;;;;-1.65;68.38;99906.75;4985322;28;20050;-73
2023/03/10 06:35:54;;;;;;;0.20;0.10;;;;;;;-1.65;68.35;99901.63;4987361;28;20045;-74
2023/03/10 06:38:21;;;;;;;2.28;0.63;;;;;;;-1.62;68.13;99910.25;4982744;28;20065;-73
2023/03/10 06:40:48;;;;;;;1.10;1.00;;;;;;;-1.60;67.79;99906.00;4985123;28;20053;-73
2023/03/10 06:43:15;;;;;;;3.40;1.85;;;;;;;-1.62;67.94;99900.00;4987489;28;20391;-73
2023/03/10 06:45:45;;;;;;;3.60;1.55;;;;;;;-1.56;68.22;99911.19;4991262;28;20499;-73
2023/03/10 06:48:12;;;;;;;2.95;0.70;;;;;;;-1.58;68.23;99908.59;4987469;28;20050;-73
2023/03/10 06:50:41;;;;;;;0.40;0.22;;;;;;;-1.54;68.19;99917.19;4987058;28;20138;-74
2023/03/10 06:53:08;;;;;;;1.23;0.25;;;;;;;-1.53;68.15;99919.78;4987598;28;20053;-72
2023/03/10 06:55:34;;;;;;;0.20;0.13;;;;;;;-1.53;68.11;99913.81;4988929;28;20057;-73
2023/03/10 06:58:01;;;;;;;0.10;0.10;;;;;;;-1.50;67.87;99916.41;4990500;28;20049;-73
2023/03/10 07:00:28;;;;;;;0.30;0.15;;;;;;;-1.46;68.23;99925.84;4989263;28;20073;-73
2023/03/10 07:02:56;;;;;;;0.30;0.10;;;;;;;-1.45;68.32;99925.00;4986538;28;20049;-74
2023/03/10 07:05:26;;;;;;;0.40;0.13;;;;;;;-1.42;68.31;99930.22;4988602;28;20052;-74
2023/03/10 07:07:53;;;;;;;0.10;0.10;;;;;;;-1.42;68.43;99933.63;4985386;28;20137;-74
2023/03/10 07:10:20;;;;;;;0.40;0.10;;;;;;;-1.37;68.12;99929.44;4988271;28;20054;-74
2023/03/10 07:12:53;;;;;;;0.63;0.20;;;;;;;-1.34;68.32;99933.72;4986092;28;20050;-74
2023/03/10 07:15:20;;;;;;;0.55;0.25;;;;;;;-1.31;67.90;99938.03;4985908;28;20149;-74
2023/03/10 07:17:47;;;;;;;1.95;0.17;;;;;;;-1.28;67.92;99938.97;4988034;28;20051;-74
2023/03/10 07:20:15;;;;;;;0.20;0.10;;;;;;;-1.34;68.45;99920.06;4990347;28;20046;-73
2023/03/10 07:22:42;;;;;;;2.05;0.20;;;;;;;-1.29;67.89;99932.13;4985803;28;20046;-74
2023/03/10 07:25:09;;;;;;;1.48;0.40;;;;;;;-1.19;68.25;99939.13;4987975;28;20066;-75
2023/03/10 07:27:36;;;;;;;1.85;0.25;;;;;;;-1.13;68.65;99944.34;4991688;28;20050;-74
2023/03/10 07:30:04;;;;;;;0.13;0.10;;;;;;;-1.09;68.29;99941.81;4985699;28;20038;-74
2023/03/10 07:32:31;;;;;;;0.40;0.20;;;;;;;-1.05;68.21;99936.78;4990273;28;20085;-75
2023/03/10 07:34:58;;;;;;;1.10;0.20;;;;;;;-1.01;68.14;99948.78;4988869;28;20129;-74
2023/03/10 07:37:27;;;;;;;0.20;0.20;;;;;;;-0.97;68.52;99942.00;4990101;28;20050;-74
2023/03/10 07:39:54;;;;;;;0.75;0.10;;;;;;;-0.93;68.55;99949.75;4989101;28;20057;-74
2023/03/10 07:42:21;;;;;;;0.43;0.10;;;;;;;-0.88;68.64;99939.59;4988859;28;20061;-74
2023/03/10 07:44:48;;;;;;;0.17;0.10;;;;;;;-0.84;68.55;99946.47;4987632;28;20054;-75
2023/03/10 07:47:15;;;;;;;0.10;0.10;;;;;;;-0.78;68.62;99951.69;4988264;28;20623;-74
2023/03/10 07:49:45;;;;;;;1.63;0.20;;;;;;;-0.72;68.60;99956.03;4987498;28;20050;-75
2023/03/10 07:52:13;;;;;;;1.92;0.20;;;;;;;-0.69;68.86;99950.94;4985303;28;20143;-74
2023/03/10 07:54:43;;;;;;;3.20;0.15;;;;;;;-0.62;68.56;99959.59;4986473;28;20202;-73
2023/03/10 07:57:10;;;;;;;0.88;0.10;;;;;;;-0.57;68.90;99963.97;4988428;28;20129;-74
2023/03/10 07:59:37;;;;;;;0.20;0.20;;;;;;;-0.53;68.71;99962.28;4988426;28;20049;-74
2023/03/10 08:02:04;;;;;;;1.17;0.10;;;;;;;-0.54;68.45;99955.41;4988713;28;20050;-74
2023/03/10 08:04:32;;;;;;;0.20;0.10;;;;;;;-0.43;68.49;99969.25;4991054;28;20050;-74
2023/03/10 08:07:01;;;;;;;2.60;0.10;;;;;;;-0.44;68.26;99967.53;4987841;28;20419;-74
2023/03/10 08:09:28;;;;;;;1.40;0.15;;;;;;;-0.39;68.64;99963.31;4988290;28;20046;-74
2023/03/10 08:11:58;;;;;;;1.27;0.10;;;;;;;-0.31;68.20;99966.84;4990443;28;20842;-74
2023/03/10 08:14:25;;;;;;;0.10;0.10;;;;;;;-0.26;68.58;99965.22;4986669;28;20053;-74
2023/03/10 08:16:55;;;;;;;0.77;0.20;;;;;;;-0.27;67.86;99952.34;4989544;28;20075;-73
2023/03/10 08:19:22;;;;;;;0.20;0.10;;;;;;;-0.18;68.37;99955.00;4986004;28;20055;-74
2023/03/10 08:21:49;;;;;;;0.50;0.13;;;;;;;-0.12;67.96;99956.78;4992468;28;20721;-74
2023/03/10 08:24:16;;;;;;;1.35;0.20;;;;;;;-0.10;68.33;99958.53;4986897;28;20725;-74
2023/03/10 08:26:43;;;;;;;0.20;0.10;;;;;;;-0.06;68.47;99962.00;4989363;28;20869;-74
2023/03/10 08:29:11;;;;;;;0.55;0.10;;;;;;;-0.02;68.00;99958.63;4988483;28;20051;-74
2023/03/10 08:31:38;;;;;;;0.82;0.20;;;;;;;-0.01;67.78;99948.38;4989747;28;20054;-74
2023/03/10 08:34:05;;;;;;;0.30;0.30;;;;;;;0.05;67.81;99945.00;4989475;28;20054;-74
2023/03/10 08:36:32;;;;;;;0.25;0.10;;;;;;;0.07;67.72;99940.75;4991345;28;20051;-73
2023/03/10 08:39:01;;;;;;;0.32;0.10;;;;;;;0.13;67.49;99937.38;4987133;28;20512;-74
2023/03/10 08:41:29;;;;;;;0.50;0.20;;;;;;;0.19;67.54;99940.00;4986835;28;20096;-73
2023/03/10 08:43:58;;;;;;;2.83;0.57;;;;;;;0.18;67.43;99923.75;4989095;28;20050;-74
2023/03/10 08:46:28;;;;;;;0.30;0.10;;;;;;;0.30;67.57;99937.56;4990137;28;20064;-74
2023/03/10 08:48:55;;;;;;;0.30;0.10;;;;;;;0.26;67.12;99922.94;4984465;28;20046;-74
2023/03/10 08:51:23;;;;;;;1.67;0.30;;;;;;;0.35;67.62;99938.47;4984551;28;20104;-73
2023/03/10 08:53:50;;;;;;;0.10;0.10;;;;;;;0.40;67.79;99939.38;4987845;28;20065;-73
2023/03/10 08:56:20;;;;;;;2.67;0.10;;;;;;;0.45;67.87;99945.41;4988182;28;20058;-74
2023/03/10 08:58:47;;;;;;;1.05;0.10;;;;;;;0.50;67.04;99932.59;4989407;28;20057;-73
2023/03/10 09:01:16;;;;;;;0.75;0.70;;;;;;;0.55;66.76;99923.22;4988832;28;20055;-74
2023/03/10 09:03:46;;;;;;;0.82;0.50;;;;;;;0.61;67.06;99933.56;4989651;28;20058;-73
2023/03/10 09:06:13;;;;;;;0.50;0.13;;;;;;;0.63;66.45;99930.16;4985998;28;20050;-74
2023/03/10 09:08:41;;;;;;;1.85;0.20;;;;;;;0.70;66.37;99937.91;4986672;28;20633;-74
2023/03/10 09:11:08;;;;;;;1.15;0.20;;;;;;;0.73;66.61;99941.34;4985949;28;20097;-73
2023/03/10 09:13:35;;;;;;;1.23;0.20;;;;;;;0.77;66.95;99939.66;4985835;28;20042;-74
2023/03/10 09:16:02;;;;;;;0.43;0.13;;;;;;;0.81;66.16;99944.84;4988802;28;20046;-73
2023/03/10 09:18:29;;;;;;;2.38;0.22;;;;;;;0.86;66.86;99950.03;4991193;28;20430;-73
2023/03/10 09:20:57;;;;;;;1.58;0.15;;;;;;;0.91;67.05;99950.91;4989537;28;20406;-73
2023/03/10 09:23:24;;;;;;;1.75;0.10;;;;;;;0.95;66.47;99950.09;4989432;28;20058;-73
2023/03/10 09:25:51;;;;;;;2.55;0.30;;;;;;;1.01;66.41;99955.28;4986787;28;20070;-73
2023/03/10 09:28:18;;;;;;;0.90;0.10;;;;;;;1.05;67.01;99957.06;4989424;28;20513;-74
2023/03/10 09:30:46;;;;;;;0.10;0.10;;;;;;;1.08;66.63;99964.78;4985793;28;20051;-72
2023/03/10 09:33:16;;;;;;;2.47;0.10;;;;;;;1.11;66.37;99957.09;4988013;28;20145;-73
2023/03/10 09:35:44;;;;;;;0.10;0.10;;;;;;;1.16;66.65;99951.09;4984360;28;20053;-73
2023/03/10 09:38:13;;;;;;;0.10;0.10;;;;;;;1.22;66.23;99958.84;4984919;28;20383;-73
2023/03/10 09:40:44;;;;;;;0.75;0.25;;;;;;;1.27;67.22;99957.16;4989303;28;20050;-73
2023/03/10 09:43:15;;;;;;;1.75;0.10;;;;;;;1.32;66.63;99956.34;4987999;28;20054;-73
2023/03/10 09:45:47;;;;;;;1.25;0.20;;;;;;;1.29;66.51;99945.19;4986947;28;20057;-73
2023/03/10 09:48:36;;;;;;;0.75;0.10;;;;;;;1.42;66.69;99958.97;4985424;28;20482;-73
2023/03/10 09:51:14;;;;;;;0.10;0.00;;;;;;;1.47;67.27;99954.72;4987785;28;20061;-73
2023/03/10 09:53:53;;;;;;;0.63;0.10;;;;;;;1.52;67.20;99959.03;4982280;28;20436;-73
2023/03/10 09:56:24;;;;;;;0.22;0.10;;;;;;;1.57;67.44;99953.91;4986077;28;20061;-74
2023/03/10 09:58:56;;;;;;;2.35;0.10;;;;;;;1.64;66.67;99957.38;4983831;28;20835;-73
2023/03/10 10:01:26;;;;;;;0.20;0.10;;;;;;;1.63;66.55;99940.22;4987306;28;20046;-74
2023/03/10 10:03:56;;;;;;;3.28;0.22;;;;;;;1.72;66.67;99950.53;4989246;28;20069;-73
2023/03/10 10:06:26;;;;;;;0.85;0.10;;;;;;;1.79;66.62;99960.88;4986791;28;20061;-73
2023/03/10 10:08:56;;;;;;;0.68;0.20;;;;;;;1.84;66.05;99958.31;4986730;28;20046;-74
2023/03/10 10:11:23;;;;;;;0.60;0.20;;;;;;;1.89;67.07;99959.19;4985091;28;20046;-73
2023/03/10 10:13:58;;;;;;;0.77;0.20;;;;;;;1.95;66.79;99958.34;4987416;28;20545;-74
2023/03/10 10:16:35;;;;;;;2.42;0.30;;;;;;;2.01;66.77;99959.22;4989137;28;20046;-74
2023/03/10 10:19:06;;;;;;;1.27;0.30;;;;;;;2.05;66.51;99952.38;4987199;28;20046;-73
2023/03/10 10:21:42;;;;;;;0.63;0.45;;;;;;;2.10;67.03;99952.38;4988808;28;20479;-74
2023/03/10 10:24:18;;;;;;;1.00;0.15;;;;;;;2.13;66.55;99954.97;4986590;28;20059;-74
2023/03/10 10:26:45;;;;;;;1.45;0.30;;;;;;;2.18;66.25;99955.84;4988016;28;20050;-74
2023/03/10 10:29:18;;;;;;;2.47;0.50;;;;;;;2.23;66.70;99960.16;4984060;28;20050;-75
2023/03/10 10:32:03;;;;;;;1.63;0.30;;;;;;;2.30;66.24;99968.75;4980134;28;20069;-74
2023/03/10 10:34:31;;;;;;;1.60;0.35;;;;;;;2.33;65.96;99961.03;4983966;28;20054;-75
2023/03/10 10:36:59;;;;;;;1.52;0.30;;;;;;;2.35;66.44;99964.47;4982982;28;20483;-76
2023/03/10 10:39:31;;;;;;;1.30;0.30;;;;;;;2.37;66.27;99959.31;4985952;28;20050;-75
2023/03/10 10:42:13;;;;;;;3.15;0.30;;;;;;;2.40;66.49;99967.06;4986023;28;20069;-75
2023/03/10 10:44:42;;;;;;;1.00;0.20;;;;;;;2.40;66.41;99967.91;4987116;28;20418;-75
2023/03/10 10:47:25;;;;;;;2.05;0.30;;;;;;;2.43;66.16;99977.38;4985616;28;20403;-74
2023/03/10 10:49:52;;;;;;;0.88;0.30;;;;;;;2.44;66.27;99968.78;4986885;28;20924;-75
2023/03/10 10:52:21;;;;;;;5.05;0.32;;;;;;;2.41;65.52;99969.63;4985148;28;20437;-74
2023/03/10 10:54:55;;;;;;;2.17;0.15;;;;;;;2.40;65.60;99969.63;4982970;28;20462;-75
2023/03/10 10:57:30;;;;;;;1.02;0.20;;;;;;;2.35;65.22;99964.47;4989386;28;20042;-74
2023/03/10 11:00:14;;;;;;;0.67;0.30;;;;;;;2.36;65.06;99966.22;4986847;28;20038;-74
2023/03/10 11:02:45;;;;;;;2.38;0.50;;;;;;;2.36;65.70;99949.84;4985516;28;21463;-75
2023/03/10 11:05:18;;;;;;;3.70;0.40;;;;;;;2.40;65.31;99962.75;4984712;28;20431;-74
2023/03/10 11:07:45;;;;;;;1.48;0.40;;;;;;;2.42;65.56;99958.47;4985851;28;20050;-74
2023/03/10 11:10:16;;;;;;;1.60;0.30;;;;;;;2.41;64.85;99951.59;4989616;28;20052;-74
2023/03/10 11:12:56;;;;;;;2.05;0.28;;;;;;;2.48;65.30;99961.06;4983073;28;20519;-75
2023/03/10 11:15:29;;;;;;;0.80;0.40;;;;;;;2.45;65.03;99955.91;4985284;28;20055;-74
2023/03/10 11:18:02;;;;;;;1.15;0.30;;;;;;;2.52;64.31;99963.66;4983671;28;20560;-75
2023/03/10 11:20:36;;;;;;;1.10;0.35;;;;;;;2.52;65.07;99967.06;4985372;28;20473;-74
2023/03/10 11:23:14;;;;;;;0.80;0.30;;;;;;;2.56;64.45;99962.78;4986839;28;20414;-75
2023/03/10 11:25:49;;;;;;;1.05;0.40;;;;;;;2.56;64.29;99970.50;4987869;28;20057;-74
2023/03/10 11:28:40;;;;;;;2.83;0.45;;;;;;;2.58;64.85;99966.22;4988655;28;20050;-74
2023/03/10 11:31:24;;;;;;;0.80;0.25;;;;;;;2.54;64.34;99954.19;4990446;28;20051;-74
2023/03/10 11:33:57;;;;;;;1.52;0.30;;;;;;;2.62;64.95;99957.66;4986607;28;20050;-74
2023/03/10 11:36:35;;;;;;;0.85;0.30;;;;;;;2.64;64.28;99961.06;4989618;28;20128;-74
2023/03/10 11:39:10;;;;;;;3.53;0.40;;;;;;;2.58;63.58;99956.75;4989772;28;20047;-74
2023/03/10 11:41:43;;;;;;;0.68;0.30;;;;;;;2.66;63.52;99972.25;4990136;28;20054;-74
2023/03/10 11:44:21;;;;;;;2.33;0.30;;;;;;;2.67;63.46;99971.38;4988337;28;20061;-74